Hlavní strana
METAR-TAF:

METAR-TAF

Letiště :

Gaziantep, Turecko

zeměpisná šířka: 37-05N, zeměpisná délka: 037-22E, výška: 701 m

Aktuální stav počasí

Zpráva byla vytvořena před 31 minutami, v 08:20 UTC
Jihovýchodní vítr 6 kt, proměnlivý mezi východním a jižním
Teplota 29°C
Vlhkost vzduchu 31%
Tlak 1011 hPa
Viditelnost 10 km a více
Žádná oblačnost pod 1500 m, nevyskytují se cumulonimby.

METAR: LTAJ 280820Z 13006KT 100V180 CAVOK 29/10 Q1011 NOSIG RMK RWY10 VRB03KT

Čas: 11:51 (08:51 UTC)

Předpověď počasí

Zpráva byla vytvořena před 4 hodinami a 11 minutami, v 04:40 UTC
Předpověď platná od 28 v 06 UTC do 29 v 06 UTC
vítr z různých směrů 2 kt
Viditelnost 10 km a více
Žádná oblačnost pod 1500 m, nevyskytují se cumulonimby.
Dočasný
od 28 v 10 UTC do 28 v 14 UTC
Západní vítr 12 kt

TAF: LTAJ 280440Z 2806/2906 VRB02KT CAVOK TEMPO 2810/2814 27012KT

Stav a předpovědi počasí z více než 4 000 letišť (zprávy METAR a TAF).

Červené a žluté tečky na mapě představují dostupné meteorologické stanice.

Když kurzor umístíte na tečku, zobrazí se název stanice.

Pak kliknutím zobrazíte stav a předpověď počasí.

Chcete-li změnit mapu, kliknutím na zelené tlačítko se znaménkem +mapu přiblížíte, kliknutím na zelené tlačítko se znaménkem – mapu oddálíte a kliknutím na zelené šipky přejdete na sousední mapy.


METAR-TAF: